createdAt,value
2017-08-09T00:00:08.495Z,0
2017-08-09T00:01:08.250Z,0
2017-08-09T00:02:08.241Z,0
2017-08-09T00:03:08.584Z,0
2017-08-09T00:04:22.898Z,0
2017-08-09T00:05:08.647Z,0
2017-08-09T00:06:23.240Z,0
2017-08-09T00:07:23.296Z,0
2017-08-09T00:08:23.302Z,0
2017-08-09T00:09:08.109Z,0
2017-08-09T00:10:23.065Z,0
2017-08-09T00:11:08.796Z,0
2017-08-09T00:12:08.831Z,0
2017-08-09T00:13:08.893Z,0
2017-08-09T00:14:08.582Z,0
2017-08-09T00:15:23.477Z,0
2017-08-09T00:16:08.920Z,0
2017-08-09T00:17:08.630Z,0
2017-08-09T00:18:08.668Z,0
2017-08-09T00:19:09.025Z,0
2017-08-09T00:20:09.028Z,0
2017-08-09T00:21:08.746Z,0
2017-08-09T00:22:09.056Z,0
2017-08-09T00:23:09.121Z,0
2017-08-09T00:24:08.814Z,0
2017-08-09T00:25:23.769Z,0
2017-08-09T00:26:23.783Z,0
2017-08-09T00:27:09.207Z,0
2017-08-09T00:28:09.228Z,0
2017-08-09T00:29:08.970Z,0
2017-08-09T00:30:08.968Z,0
2017-08-09T00:31:09.318Z,0
2017-08-09T00:32:09.316Z,0
2017-08-09T00:33:09.366Z,0
2017-08-09T00:34:23.674Z,0
2017-08-09T00:36:24.105Z,0
2017-08-09T00:37:09.142Z,0
2017-08-09T00:38:09.181Z,0
2017-08-09T00:39:08.875Z,0
2017-08-09T00:40:09.239Z,0
2017-08-09T00:41:09.263Z,0
2017-08-09T00:42:09.275Z,0
2017-08-09T00:43:09.632Z,0
2017-08-09T00:44:09.635Z,0
2017-08-09T00:45:09.066Z,0
2017-08-09T00:46:09.706Z,0
2017-08-09T00:47:09.722Z,0
2017-08-09T00:48:09.166Z,0
2017-08-09T00:49:09.765Z,0
2017-08-09T00:50:09.200Z,0
2017-08-09T00:51:09.527Z,0
2017-08-09T00:52:24.460Z,0
2017-08-09T00:53:09.565Z,0
2017-08-09T00:54:09.895Z,0
2017-08-09T00:55:09.628Z,0
2017-08-09T00:56:09.699Z,0
2017-08-09T00:57:10.001Z,0
2017-08-09T00:58:24.355Z,0
2017-08-09T00:59:10.019Z,0
2017-08-09T01:00:09.730Z,0
2017-08-09T01:01:09.787Z,0
2017-08-09T01:02:10.130Z,0
2017-08-09T01:03:09.809Z,0
2017-08-09T01:04:10.160Z,0
2017-08-09T01:05:09.877Z,0
2017-08-09T01:06:10.237Z,0
2017-08-09T01:07:09.949Z,0
2017-08-09T01:08:24.883Z,0
2017-08-09T01:09:10.294Z,0
2017-08-09T01:10:10.335Z,0
2017-08-09T01:11:10.336Z,0
2017-08-09T01:12:10.363Z,0
2017-08-09T01:13:10.420Z,0
2017-08-09T01:14:25.038Z,0
2017-08-09T01:15:10.157Z,0
2017-08-09T01:17:25.110Z,0
2017-08-09T01:19:10.528Z,0
2017-08-09T01:20:09.653Z,0
2017-08-09T01:21:10.597Z,0
2017-08-09T01:22:10.634Z,0
2017-08-09T01:24:25.299Z,0
2017-08-09T01:25:10.411Z,0
2017-08-09T01:26:10.746Z,0
2017-08-09T01:27:10.745Z,0
2017-08-09T01:28:10.483Z,0
2017-08-09T01:30:10.827Z,0
2017-08-09T01:31:10.858Z,0
2017-08-09T01:33:10.918Z,0
2017-08-09T01:34:10.644Z,0
2017-08-09T01:35:10.647Z,0
2017-08-09T01:36:10.962Z,0
2017-08-09T01:37:10.708Z,0
2017-08-09T01:38:11.058Z,0
2017-08-09T01:39:25.368Z,0
2017-08-09T01:40:10.842Z,0
2017-08-09T01:41:10.820Z,0
2017-08-09T01:42:11.133Z,0
2017-08-09T01:43:10.871Z,0
2017-08-09T01:44:11.216Z,0
2017-08-09T01:45:25.540Z,0
2017-08-09T01:46:10.641Z,0
2017-08-09T01:47:11.253Z,0
2017-08-09T01:48:11.316Z,0
2017-08-09T01:49:11.012Z,0
2017-08-09T01:50:11.036Z,0
2017-08-09T01:51:11.384Z,0
2017-08-09T01:52:11.404Z,0
2017-08-09T01:53:11.443Z,0
2017-08-09T01:55:11.508Z,0
2017-08-09T01:56:11.509Z,0
2017-08-09T01:57:11.543Z,0
2017-08-09T01:59:11.572Z,0
2017-08-09T02:00:11.613Z,0
2017-08-09T02:01:11.615Z,0
2017-08-09T02:02:11.681Z,0
2017-08-09T02:03:26.285Z,0
2017-08-09T02:04:11.401Z,0
2017-08-09T02:05:11.106Z,0
2017-08-09T02:06:11.771Z,0
2017-08-09T02:07:11.781Z,0
2017-08-09T02:08:11.822Z,0
2017-08-09T02:09:11.542Z,0
2017-08-09T02:10:11.251Z,0
2017-08-09T02:11:26.505Z,0
2017-08-09T02:12:11.903Z,0
2017-08-09T02:13:11.645Z,0
2017-08-09T02:14:11.971Z,0
2017-08-09T02:15:26.595Z,0
2017-08-09T02:16:11.393Z,0
2017-08-09T02:18:11.740Z,0
2017-08-09T02:19:12.122Z,0
2017-08-09T02:20:26.722Z,0
2017-08-09T02:21:26.749Z,0
2017-08-09T02:22:12.170Z,0
2017-08-09T02:23:11.876Z,0
2017-08-09T02:24:12.246Z,0
2017-08-09T02:25:12.245Z,0
2017-08-09T02:26:11.981Z,0
2017-08-09T02:27:26.920Z,0
2017-08-09T02:28:26.946Z,0
2017-08-09T02:29:26.653Z,0
2017-08-09T02:30:12.406Z,0
2017-08-09T02:31:12.413Z,0
2017-08-09T02:32:12.477Z,0
2017-08-09T02:33:12.453Z,0
2017-08-09T02:34:27.098Z,0
2017-08-09T02:35:12.223Z,0
2017-08-09T02:36:12.253Z,0
2017-08-09T02:37:12.267Z,0
2017-08-09T02:38:11.965Z,0
2017-08-09T02:39:12.621Z,0
2017-08-09T02:40:26.915Z,0
2017-08-09T02:41:12.371Z,0
2017-08-09T02:43:27.330Z,0
2017-08-09T02:44:12.719Z,0
2017-08-09T02:46:12.792Z,0
2017-08-09T02:47:12.844Z,0
2017-08-09T02:48:12.841Z,0
2017-08-09T02:49:12.858Z,0
2017-08-09T02:50:12.901Z,0
2017-08-09T02:51:26.901Z,0
2017-08-09T02:52:12.957Z,0
2017-08-09T02:53:12.993Z,0
2017-08-09T02:55:12.696Z,0
2017-08-09T02:56:13.052Z,0
2017-08-09T02:57:13.076Z,0
2017-08-09T02:58:13.089Z,0
2017-08-09T02:59:27.411Z,0
2017-08-09T03:00:13.183Z,0
2017-08-09T03:01:13.200Z,0
2017-08-09T03:02:13.176Z,0
2017-08-09T03:03:13.228Z,0
2017-08-09T03:04:13.220Z,0
2017-08-09T03:05:27.567Z,0
2017-08-09T03:06:13.282Z,0
2017-08-09T03:07:13.326Z,0
2017-08-09T03:08:13.350Z,0
2017-08-09T03:10:13.409Z,0
2017-08-09T03:11:13.444Z,0
2017-08-09T03:12:13.466Z,0
2017-08-09T03:13:13.163Z,0
2017-08-09T03:14:28.104Z,0
2017-08-09T03:15:13.539Z,0
2017-08-09T03:16:12.927Z,0
2017-08-09T03:17:13.285Z,0
2017-08-09T03:18:13.605Z,0
2017-08-09T03:19:13.326Z,0
2017-08-09T03:20:28.239Z,0
2017-08-09T03:21:13.684Z,0
2017-08-09T03:22:13.079Z,0
2017-08-09T03:23:13.729Z,0
2017-08-09T03:24:13.464Z,0
2017-08-09T03:25:13.773Z,0
2017-08-09T03:26:28.420Z,0
2017-08-09T03:27:13.836Z,0
2017-08-09T03:28:13.856Z,0
2017-08-09T03:29:13.871Z,0
2017-08-09T03:30:13.927Z,0
2017-08-09T03:31:13.666Z,0
2017-08-09T03:32:13.973Z,0
2017-08-09T03:33:13.962Z,0
2017-08-09T03:34:28.322Z,0
2017-08-09T03:35:14.050Z,0
2017-08-09T03:36:14.047Z,0
2017-08-09T03:37:28.679Z,0
2017-08-09T03:38:14.121Z,0
2017-08-09T03:39:18.852Z,0
2017-08-09T03:40:14.179Z,0
2017-08-09T03:41:14.181Z,0
2017-08-09T03:42:14.218Z,0
2017-08-09T03:43:14.215Z,0
2017-08-09T03:44:14.250Z,0
2017-08-09T03:45:28.893Z,0
2017-08-09T03:46:28.893Z,5
2017-08-09T03:47:14.047Z,5
2017-08-09T03:48:13.727Z,5
2017-08-09T03:49:14.395Z,5
2017-08-09T03:50:14.412Z,5
2017-08-09T03:51:14.426Z,5
2017-08-09T03:52:14.153Z,5
2017-08-09T03:53:29.109Z,5
2017-08-09T03:54:29.113Z,5
2017-08-09T03:55:14.549Z,5
2017-08-09T03:56:29.174Z,10
2017-08-09T03:57:14.291Z,10
2017-08-09T03:58:28.594Z,15
2017-08-09T03:59:29.261Z,15
2017-08-09T04:00:14.363Z,15
2017-08-09T04:01:14.696Z,15
2017-08-09T04:02:29.007Z,20
2017-08-09T04:03:14.763Z,20
2017-08-09T04:04:14.766Z,20
2017-08-09T04:05:14.804Z,25
2017-08-09T04:06:14.818Z,25
2017-08-09T04:07:14.849Z,25
2017-08-09T04:08:14.846Z,25
2017-08-09T04:09:14.898Z,25
2017-08-09T04:10:29.502Z,25
2017-08-09T04:11:14.662Z,25
2017-08-09T04:12:28.940Z,25
2017-08-09T04:13:15.004Z,25
2017-08-09T04:14:15.008Z,25
2017-08-09T04:15:15.036Z,25
2017-08-09T04:16:14.486Z,25
2017-08-09T04:17:15.102Z,20
2017-08-09T04:18:29.726Z,20
2017-08-09T04:19:15.134Z,20
2017-08-09T04:20:14.877Z,20
2017-08-09T04:21:15.189Z,20
2017-08-09T04:22:14.602Z,20
2017-08-09T04:23:15.245Z,20
2017-08-09T04:24:14.981Z,20
2017-08-09T04:25:15.299Z,20
2017-08-09T04:26:15.337Z,25
2017-08-09T04:27:15.326Z,25
2017-08-09T04:28:15.380Z,30
2017-08-09T04:29:15.082Z,35
2017-08-09T04:30:15.119Z,40
2017-08-09T04:31:15.436Z,40
2017-08-09T04:32:15.473Z,45
2017-08-09T04:33:15.507Z,45
2017-08-09T04:34:30.128Z,50
2017-08-09T04:35:15.553Z,55
2017-08-09T04:36:15.591Z,55
2017-08-09T04:37:15.576Z,60
2017-08-09T04:38:15.632Z,65
2017-08-09T04:39:15.702Z,70
2017-08-09T04:40:15.373Z,75
2017-08-09T04:41:15.704Z,100
2017-08-09T04:42:15.726Z,85
2017-08-09T04:43:15.739Z,90
2017-08-09T04:44:15.791Z,95
2017-08-09T04:45:30.410Z,95
2017-08-09T04:46:15.829Z,105
2017-08-09T04:47:15.862Z,115
2017-08-09T04:48:30.153Z,115
2017-08-09T04:49:30.196Z,100
2017-08-09T04:50:15.941Z,100
2017-08-09T04:51:15.962Z,95
2017-08-09T04:52:15.692Z,95
2017-08-09T04:53:16.021Z,95
2017-08-09T04:54:30.635Z,115
2017-08-09T04:55:15.744Z,155
2017-08-09T04:56:15.788Z,150
2017-08-09T04:58:16.156Z,200
2017-08-09T04:59:30.766Z,95
2017-08-09T05:00:16.236Z,100
2017-08-09T05:01:16.190Z,110
2017-08-09T05:03:16.242Z,180
2017-08-09T05:04:16.328Z,200
2017-08-09T05:05:16.328Z,420
2017-08-09T05:06:16.350Z,490
2017-08-09T05:07:16.351Z,470
2017-08-09T05:08:30.973Z,720
2017-08-09T05:09:16.421Z,520
2017-08-09T05:10:16.464Z,530
2017-08-09T05:11:31.089Z,720
2017-08-09T05:12:16.500Z,640
2017-08-09T05:13:31.124Z,885
2017-08-09T05:14:16.223Z,940
2017-08-09T05:15:31.173Z,885
2017-08-09T05:16:16.300Z,970
2017-08-09T05:18:16.358Z,990
2017-08-09T05:19:16.365Z,980
2017-08-09T05:20:16.424Z,965
2017-08-09T05:21:31.050Z,975
2017-08-09T05:22:16.768Z,975
2017-08-09T05:23:16.504Z,985
2017-08-09T05:24:16.535Z,990
2017-08-09T05:25:16.858Z,1010
2017-08-09T05:26:16.618Z,1010
2017-08-09T05:27:16.935Z,930
2017-08-09T05:28:16.674Z,865
2017-08-09T05:30:17.044Z,910
2017-08-09T05:31:17.071Z,960
2017-08-09T05:32:31.693Z,720
2017-08-09T05:33:16.506Z,1000
2017-08-09T05:34:16.540Z,1070
2017-08-09T05:35:17.219Z,1165
2017-08-09T05:36:16.894Z,1180
2017-08-09T05:37:31.860Z,1115
2017-08-09T05:38:16.682Z,1125
2017-08-09T05:39:31.613Z,1105
2017-08-09T05:40:31.650Z,1020
2017-08-09T05:41:17.097Z,980
2017-08-09T05:42:17.132Z,1075
2017-08-09T05:44:17.502Z,280
2017-08-09T05:45:17.508Z,1090
2017-08-09T05:46:17.270Z,1090
2017-08-09T05:47:17.603Z,1075
2017-08-09T05:48:17.668Z,1040
2017-08-09T05:49:17.667Z,1005
2017-08-09T05:50:17.719Z,995
2017-08-09T05:51:17.738Z,1040
2017-08-09T05:52:32.064Z,1055
2017-08-09T05:53:32.090Z,1085
2017-08-09T05:54:17.545Z,1100
2017-08-09T05:55:17.248Z,1090
2017-08-09T05:56:17.593Z,1085
2017-08-09T05:57:17.618Z,1080
2017-08-09T05:58:18.006Z,1185
2017-08-09T05:59:17.722Z,400
2017-08-09T06:00:17.744Z,1095
2017-08-09T06:01:17.792Z,1110
2017-08-09T06:02:17.494Z,1120
2017-08-09T06:03:32.771Z,1125
2017-08-09T06:04:18.188Z,1140
2017-08-09T06:05:32.823Z,1135
2017-08-09T06:07:18.303Z,1145
2017-08-09T06:08:18.345Z,1160
2017-08-09T06:09:47.275Z,1220
2017-08-09T06:10:18.410Z,1220
2017-08-09T06:11:18.459Z,1190
2017-08-09T06:12:18.452Z,1165
2017-08-09T06:13:18.208Z,1125
2017-08-09T06:14:18.553Z,1155
2017-08-09T06:15:18.604Z,1160
2017-08-09T06:16:18.632Z,1165
2017-08-09T06:17:18.660Z,1190
2017-08-09T06:18:18.700Z,1165
2017-08-09T06:19:18.750Z,1170
2017-08-09T06:20:33.394Z,1190
2017-08-09T06:21:18.516Z,1200
2017-08-09T06:22:18.523Z,1225
2017-08-09T06:23:18.892Z,1245
2017-08-09T06:25:18.968Z,1160
2017-08-09T06:26:18.707Z,1140
2017-08-09T06:27:19.038Z,1130
2017-08-09T06:28:18.751Z,1135
2017-08-09T06:29:19.080Z,1135
2017-08-09T06:30:18.561Z,1120
2017-08-09T06:31:19.171Z,1135
2017-08-09T06:32:18.925Z,1180
2017-08-09T06:33:19.254Z,1185
2017-08-09T06:34:19.003Z,1175
2017-08-09T06:35:19.401Z,1140
2017-08-09T06:36:19.057Z,1155
2017-08-09T06:37:19.380Z,1125
2017-08-09T06:38:19.139Z,1095
2017-08-09T06:39:19.482Z,915
2017-08-09T06:40:19.519Z,470
2017-08-09T06:41:19.541Z,285
2017-08-09T06:42:19.268Z,290
2017-08-09T06:43:19.018Z,970
2017-08-09T06:44:19.674Z,480
2017-08-09T06:45:19.692Z,840
2017-08-09T06:46:34.363Z,915
2017-08-09T06:47:19.449Z,935
2017-08-09T06:48:19.511Z,960
2017-08-09T06:49:19.537Z,940
2017-08-09T06:50:19.577Z,880
2017-08-09T06:51:19.614Z,840
2017-08-09T06:52:19.950Z,780
2017-08-09T06:53:20.002Z,790
2017-08-09T06:55:20.078Z,720
2017-08-09T06:56:34.705Z,700
2017-08-09T06:58:20.160Z,665
2017-08-09T06:59:20.199Z,670
2017-08-09T07:00:34.868Z,570
2017-08-09T07:01:34.590Z,515
2017-08-09T07:02:20.360Z,580
2017-08-09T07:03:20.376Z,560
2017-08-09T07:04:34.699Z,545
2017-08-09T07:05:20.436Z,565
2017-08-09T07:06:20.484Z,575
2017-08-09T07:07:20.506Z,565
2017-08-09T07:08:20.567Z,550
2017-08-09T07:09:20.297Z,555
2017-08-09T07:10:20.692Z,585
2017-08-09T07:11:20.670Z,725
2017-08-09T07:12:49.915Z,780
2017-08-09T07:13:20.727Z,970
2017-08-09T07:14:20.168Z,1325
2017-08-09T07:15:20.798Z,1490
2017-08-09T07:16:20.843Z,1230
2017-08-09T07:17:35.493Z,1005
2017-08-09T07:18:20.938Z,860
2017-08-09T07:19:20.351Z,800
2017-08-09T07:20:20.986Z,645
2017-08-09T07:21:21.058Z,640
2017-08-09T07:22:21.052Z,635
2017-08-09T07:23:20.813Z,775
2017-08-09T07:24:21.150Z,950
2017-08-09T07:25:21.183Z,905
2017-08-09T07:26:21.231Z,870
2017-08-09T07:27:21.279Z,865
2017-08-09T07:28:35.872Z,635
2017-08-09T07:29:21.367Z,555
2017-08-09T07:31:21.382Z,750
2017-08-09T07:33:21.172Z,700
2017-08-09T07:34:21.518Z,745
2017-08-09T07:35:21.545Z,505
2017-08-09T07:36:21.251Z,470
2017-08-09T07:37:21.635Z,375
2017-08-09T07:38:35.952Z,285
2017-08-09T07:39:21.423Z,270
2017-08-09T07:40:21.441Z,260
2017-08-09T07:41:36.347Z,380
2017-08-09T07:42:21.500Z,425
2017-08-09T07:43:21.517Z,635
2017-08-09T07:44:36.171Z,700
2017-08-09T07:45:36.505Z,705
2017-08-09T07:46:21.918Z,805
2017-08-09T07:47:36.589Z,675
2017-08-09T07:49:22.055Z,615
2017-08-09T07:50:36.680Z,465
2017-08-09T07:51:22.128Z,450
2017-08-09T07:52:36.738Z,365
2017-08-09T07:53:22.180Z,305
2017-08-09T07:54:22.222Z,530
2017-08-09T07:56:22.343Z,660
2017-08-09T07:57:22.317Z,505
2017-08-09T07:58:22.355Z,670
2017-08-09T07:59:36.679Z,630
2017-08-09T08:00:22.105Z,605
2017-08-09T08:01:22.471Z,690
2017-08-09T08:02:22.492Z,770
2017-08-09T08:03:22.543Z,740
2017-08-09T08:04:22.538Z,680
2017-08-09T08:05:37.212Z,650
2017-08-09T08:06:22.634Z,705
2017-08-09T08:07:22.676Z,695
2017-08-09T08:08:22.715Z,575
2017-08-09T08:09:22.714Z,580
2017-08-09T08:10:22.470Z,430
2017-08-09T08:11:37.414Z,395
2017-08-09T08:12:37.428Z,325
2017-08-09T08:13:22.904Z,320
2017-08-09T08:14:22.915Z,350
2017-08-09T08:15:22.640Z,300
2017-08-09T08:16:22.956Z,275
2017-08-09T08:17:23.019Z,415
2017-08-09T08:18:23.061Z,360
2017-08-09T08:19:23.086Z,250
2017-08-09T08:20:23.123Z,235
2017-08-09T08:22:22.577Z,250
2017-08-09T08:23:23.204Z,235
2017-08-09T08:25:23.306Z,390
2017-08-09T08:26:23.332Z,385
2017-08-09T08:27:23.064Z,350
2017-08-09T08:28:23.073Z,305
2017-08-09T08:29:23.136Z,280
2017-08-09T08:30:38.046Z,270
2017-08-09T08:31:37.473Z,270
2017-08-09T08:32:23.510Z,270
2017-08-09T08:33:23.559Z,280
2017-08-09T08:34:23.281Z,275
2017-08-09T08:35:23.628Z,270
2017-08-09T08:36:23.667Z,270
2017-08-09T08:37:23.706Z,260
2017-08-09T08:38:38.310Z,260
2017-08-09T08:39:38.367Z,255
2017-08-09T08:40:23.780Z,260
2017-08-09T08:42:23.835Z,255
2017-08-09T08:43:23.901Z,255
2017-08-09T08:45:37.942Z,355
2017-08-09T08:46:23.998Z,440
2017-08-09T08:47:38.613Z,425
2017-08-09T08:48:24.048Z,355
2017-08-09T08:49:24.072Z,530
2017-08-09T08:50:24.130Z,575
2017-08-09T08:51:23.846Z,570
2017-08-09T08:52:23.874Z,545
2017-08-09T08:53:23.886Z,530
2017-08-09T08:54:24.249Z,515
2017-08-09T08:55:24.288Z,355
2017-08-09T08:56:38.617Z,520
2017-08-09T08:57:24.361Z,520
2017-08-09T08:59:24.421Z,520
2017-08-09T09:00:38.734Z,525
2017-08-09T09:01:39.097Z,515
2017-08-09T09:02:24.195Z,510
2017-08-09T09:03:38.866Z,490
2017-08-09T09:04:24.581Z,475
2017-08-09T09:05:24.618Z,480
2017-08-09T09:06:39.261Z,470
2017-08-09T09:07:24.690Z,470
2017-08-09T09:08:39.346Z,465
2017-08-09T09:09:39.364Z,455
2017-08-09T09:10:24.499Z,455
2017-08-09T09:11:39.432Z,445
2017-08-09T09:12:24.873Z,440
2017-08-09T09:13:24.598Z,435
2017-08-09T09:14:24.931Z,435
2017-08-09T09:16:24.996Z,415
2017-08-09T09:17:25.049Z,410
2017-08-09T09:18:25.076Z,400
2017-08-09T09:19:39.515Z,375
2017-08-09T09:20:25.134Z,370
2017-08-09T09:21:25.199Z,345
2017-08-09T09:22:25.222Z,340
2017-08-09T09:23:25.244Z,335
2017-08-09T09:24:25.285Z,330
2017-08-09T09:25:25.297Z,325
2017-08-09T09:26:25.363Z,325
2017-08-09T09:27:25.400Z,325
2017-08-09T09:28:25.104Z,325
2017-08-09T09:29:25.487Z,325
2017-08-09T09:30:25.493Z,325
2017-08-09T09:31:25.234Z,320
2017-08-09T09:32:25.560Z,320
2017-08-09T09:33:40.215Z,320
2017-08-09T09:34:40.236Z,320
2017-08-09T09:35:25.673Z,315
2017-08-09T09:36:25.400Z,315
2017-08-09T09:37:25.125Z,315
2017-08-09T09:38:25.813Z,310
2017-08-09T09:39:25.810Z,315
2017-08-09T09:40:25.846Z,315
2017-08-09T09:41:25.582Z,185
2017-08-09T09:42:25.338Z,305
2017-08-09T09:43:25.970Z,300
2017-08-09T09:44:25.964Z,295
2017-08-09T09:45:25.406Z,295
2017-08-09T09:46:26.052Z,290
2017-08-09T09:47:26.106Z,295
2017-08-09T09:48:26.145Z,295
2017-08-09T09:49:26.183Z,295
2017-08-09T09:50:25.885Z,300
2017-08-09T09:52:26.292Z,205
2017-08-09T09:53:40.894Z,160
2017-08-09T09:54:26.337Z,175
2017-08-09T09:55:40.984Z,305
2017-08-09T09:57:26.146Z,315
2017-08-09T09:58:26.489Z,315
2017-08-09T09:59:26.203Z,320
2017-08-09T10:01:26.568Z,295
2017-08-09T10:02:41.214Z,215
2017-08-09T10:03:41.257Z,285
2017-08-09T10:04:26.696Z,315
2017-08-09T10:05:26.424Z,320
2017-08-09T10:06:41.036Z,315
2017-08-09T10:07:26.794Z,320
2017-08-09T10:08:26.516Z,315
2017-08-09T10:09:26.870Z,320
2017-08-09T10:10:41.180Z,320
2017-08-09T10:11:26.920Z,315
2017-08-09T10:12:26.977Z,320
2017-08-09T10:13:27.023Z,305
2017-08-09T10:14:27.023Z,305
2017-08-09T10:15:27.040Z,305
2017-08-09T10:16:27.330Z,295
2017-08-09T10:17:27.575Z,295
2017-08-09T10:18:27.182Z,295
2017-08-09T10:20:26.925Z,295
2017-08-09T10:21:41.882Z,295
2017-08-09T10:22:41.595Z,295
2017-08-09T10:23:41.943Z,295
2017-08-09T10:24:41.974Z,290
2017-08-09T10:25:27.403Z,290
2017-08-09T10:26:27.412Z,285
2017-08-09T10:27:27.482Z,280
2017-08-09T10:28:27.211Z,275
2017-08-09T10:29:27.248Z,275
2017-08-09T10:31:27.324Z,280
2017-08-09T10:32:27.343Z,285
2017-08-09T10:33:27.692Z,285
2017-08-09T10:34:42.301Z,170
2017-08-09T10:35:42.363Z,155
2017-08-09T10:36:27.783Z,170
2017-08-09T10:37:42.411Z,255
2017-08-09T10:38:42.155Z,280
2017-08-09T10:39:27.873Z,280
2017-08-09T10:40:42.539Z,145
2017-08-09T10:42:42.266Z,140
2017-08-09T10:43:27.728Z,135
2017-08-09T10:44:28.051Z,185
2017-08-09T10:45:42.688Z,265
2017-08-09T10:46:28.099Z,270
2017-08-09T10:47:28.141Z,280
2017-08-09T10:48:28.194Z,280
2017-08-09T10:49:28.215Z,275
2017-08-09T10:50:42.860Z,265
2017-08-09T10:51:27.986Z,270
2017-08-09T10:52:27.997Z,260
2017-08-09T10:53:28.052Z,255
2017-08-09T10:54:42.053Z,255
2017-08-09T10:55:28.100Z,250
2017-08-09T10:56:28.137Z,250
2017-08-09T10:57:28.164Z,155
2017-08-09T10:58:28.216Z,240
2017-08-09T10:59:43.149Z,160
2017-08-09T11:00:28.590Z,165
2017-08-09T11:01:28.609Z,250
2017-08-09T11:03:43.283Z,245
2017-08-09T11:04:43.296Z,245
2017-08-09T11:05:28.155Z,240
2017-08-09T11:06:28.762Z,240
2017-08-09T11:08:28.845Z,235
2017-08-09T11:09:43.172Z,220
2017-08-09T11:10:28.910Z,210
2017-08-09T11:12:28.676Z,125
2017-08-09T11:13:29.010Z,120
2017-08-09T11:14:29.040Z,155
2017-08-09T11:15:29.066Z,200
2017-08-09T11:16:29.099Z,235
2017-08-09T11:17:29.144Z,215
2017-08-09T11:18:43.817Z,210
2017-08-09T11:19:28.593Z,135
2017-08-09T11:20:29.219Z,130
2017-08-09T11:22:29.302Z,215
2017-08-09T11:23:29.015Z,140
2017-08-09T11:24:29.372Z,155
2017-08-09T11:26:29.444Z,205
2017-08-09T11:27:29.428Z,200
2017-08-09T11:28:29.177Z,200
2017-08-09T11:29:29.202Z,200
2017-08-09T11:30:29.250Z,200
2017-08-09T11:31:29.286Z,195
2017-08-09T11:32:29.602Z,190
2017-08-09T11:33:43.941Z,195
2017-08-09T11:34:29.359Z,200
2017-08-09T11:35:44.025Z,200
2017-08-09T11:36:29.428Z,145
2017-08-09T11:37:29.155Z,130
2017-08-09T11:38:29.501Z,135
2017-08-09T11:39:29.831Z,190
2017-08-09T11:40:29.876Z,200
2017-08-09T11:41:44.480Z,175
2017-08-09T11:43:29.652Z,205
2017-08-09T11:44:44.292Z,180
2017-08-09T11:45:30.028Z,145
2017-08-09T11:46:44.661Z,200
2017-08-09T11:47:30.071Z,205
2017-08-09T11:48:29.869Z,140
2017-08-09T11:49:29.820Z,210
2017-08-09T11:51:29.903Z,220
2017-08-09T11:52:29.937Z,225
2017-08-09T11:53:29.940Z,160
2017-08-09T11:54:30.013Z,155
2017-08-09T11:55:44.946Z,210
2017-08-09T11:56:30.380Z,210
2017-08-09T11:57:58.985Z,220
2017-08-09T11:58:29.813Z,220
2017-08-09T11:59:44.749Z,155
2017-08-09T12:00:29.876Z,155
2017-08-09T12:01:30.240Z,180
2017-08-09T12:02:29.948Z,155
2017-08-09T12:03:30.572Z,150
2017-08-09T12:04:30.634Z,195
2017-08-09T12:06:30.680Z,125
2017-08-09T12:07:59.607Z,125
2017-08-09T12:08:30.744Z,125
2017-08-09T12:09:30.795Z,125
2017-08-09T12:10:30.797Z,120
2017-08-09T12:11:30.851Z,190
2017-08-09T12:12:45.480Z,145
2017-08-09T12:13:45.500Z,205
2017-08-09T12:14:30.941Z,200
2017-08-09T12:15:45.248Z,195
2017-08-09T12:16:45.592Z,190
2017-08-09T12:18:30.734Z,185
2017-08-09T12:19:31.155Z,180
2017-08-09T12:20:30.817Z,180
2017-08-09T12:21:30.847Z,175
2017-08-09T12:22:31.180Z,145
2017-08-09T12:23:30.907Z,180
2017-08-09T12:25:31.288Z,180
2017-08-09T12:26:31.333Z,185
2017-08-09T12:27:31.330Z,185
2017-08-09T12:28:46.004Z,175
2017-08-09T12:29:45.986Z,175
2017-08-09T12:30:31.428Z,140
2017-08-09T12:31:31.469Z,170
2017-08-09T12:32:31.203Z,155
2017-08-09T12:33:31.228Z,185
2017-08-09T12:34:31.563Z,120
2017-08-09T12:35:46.183Z,190
2017-08-09T12:36:31.006Z,185
2017-08-09T12:37:46.272Z,185
2017-08-09T12:38:31.673Z,185
2017-08-09T12:39:31.420Z,185
2017-08-09T12:40:31.430Z,185
2017-08-09T12:41:31.456Z,185
2017-08-09T12:43:31.862Z,130
2017-08-09T12:44:46.449Z,175
2017-08-09T12:45:31.603Z,110
2017-08-09T12:46:31.910Z,110
2017-08-09T12:47:31.958Z,155
2017-08-09T12:48:31.674Z,120
2017-08-09T12:49:46.312Z,165
2017-08-09T12:50:31.435Z,180
2017-08-09T12:51:31.771Z,120
2017-08-09T12:52:31.492Z,190
2017-08-09T12:53:32.129Z,190
2017-08-09T12:54:31.566Z,185
2017-08-09T12:55:32.209Z,185
2017-08-09T12:56:31.628Z,105
2017-08-09T12:57:46.854Z,105
2017-08-09T12:58:31.996Z,105
2017-08-09T12:59:32.016Z,105
2017-08-09T13:00:32.051Z,115
2017-08-09T13:01:32.387Z,195
2017-08-09T13:02:47.038Z,200
2017-08-09T13:03:47.053Z,200
2017-08-09T13:04:32.472Z,195
2017-08-09T13:05:32.510Z,195
2017-08-09T13:06:32.520Z,200
2017-08-09T13:07:32.555Z,200
2017-08-09T13:09:46.922Z,195
2017-08-09T13:10:47.258Z,195
2017-08-09T13:11:32.403Z,195
2017-08-09T13:12:32.726Z,195
2017-08-09T13:13:32.463Z,195
2017-08-09T13:14:32.477Z,195
2017-08-09T13:15:47.427Z,200
2017-08-09T13:16:47.118Z,200
2017-08-09T13:17:32.560Z,125
2017-08-09T13:18:32.924Z,190
2017-08-09T13:19:32.622Z,190
2017-08-09T13:20:32.964Z,190
2017-08-09T13:21:46.997Z,190
2017-08-09T13:22:32.710Z,180
2017-08-09T13:23:32.760Z,170
2017-08-09T13:24:47.081Z,200
2017-08-09T13:25:33.127Z,200
2017-08-09T13:26:32.881Z,195
2017-08-09T13:27:32.561Z,200
2017-08-09T13:28:33.233Z,160
2017-08-09T13:29:33.239Z,190
2017-08-09T13:30:47.894Z,190
2017-08-09T13:31:33.309Z,190
2017-08-09T13:32:47.932Z,185
2017-08-09T13:33:33.363Z,185
2017-08-09T13:34:33.393Z,175
2017-08-09T13:35:33.430Z,185
2017-08-09T13:36:33.456Z,175
2017-08-09T13:37:33.489Z,185
2017-08-09T13:38:48.140Z,175
2017-08-09T13:39:33.538Z,185
2017-08-09T13:40:33.602Z,195
2017-08-09T13:41:33.611Z,190
2017-08-09T13:43:33.682Z,185
2017-08-09T13:44:33.379Z,185
2017-08-09T13:45:33.444Z,185
2017-08-09T13:46:33.468Z,185
2017-08-09T13:47:33.827Z,190
2017-08-09T13:48:48.417Z,190
2017-08-09T13:49:33.881Z,145
2017-08-09T13:50:33.569Z,125
2017-08-09T13:51:48.527Z,180
2017-08-09T13:52:33.950Z,190
2017-08-09T13:53:48.605Z,195
2017-08-09T13:54:34.043Z,200
2017-08-09T13:55:33.715Z,195
2017-08-09T13:56:34.087Z,200
2017-08-09T13:57:33.771Z,200
2017-08-09T13:58:34.125Z,205
2017-08-09T14:00:33.896Z,205
2017-08-09T14:01:48.503Z,210
2017-08-09T14:02:34.246Z,210
2017-08-09T14:03:33.977Z,210
2017-08-09T14:04:48.608Z,210
2017-08-09T14:05:34.043Z,210
2017-08-09T14:06:34.403Z,165
2017-08-09T14:07:34.100Z,145
2017-08-09T14:08:34.126Z,140
2017-08-09T14:09:34.160Z,125
2017-08-09T14:11:48.838Z,125
2017-08-09T14:12:34.547Z,195
2017-08-09T14:13:34.296Z,200
2017-08-09T14:14:34.307Z,130
2017-08-09T14:16:34.368Z,195
2017-08-09T14:17:34.722Z,200
2017-08-09T14:18:34.452Z,205
2017-08-09T14:19:49.368Z,205
2017-08-09T14:20:34.481Z,210
2017-08-09T14:21:34.825Z,210
2017-08-09T14:22:34.262Z,210
2017-08-09T14:23:34.914Z,205
2017-08-09T14:24:49.545Z,205
2017-08-09T14:25:34.954Z,200
2017-08-09T14:27:35.029Z,195
2017-08-09T14:28:49.337Z,190
2017-08-09T14:29:49.676Z,190
2017-08-09T14:30:35.133Z,185
2017-08-09T14:31:35.140Z,175
2017-08-09T14:32:35.179Z,190
2017-08-09T14:33:35.213Z,195
2017-08-09T14:34:34.926Z,195
2017-08-09T14:35:49.876Z,195
2017-08-09T14:36:49.897Z,195
2017-08-09T14:37:34.712Z,145
2017-08-09T14:38:35.322Z,135
2017-08-09T14:39:35.395Z,190
2017-08-09T14:40:35.418Z,200
2017-08-09T14:41:50.061Z,195
2017-08-09T14:42:35.484Z,135
2017-08-09T14:43:35.492Z,120
2017-08-09T14:44:35.533Z,140
2017-08-09T14:45:35.560Z,125
2017-08-09T14:46:35.633Z,180
2017-08-09T14:47:35.619Z,185
2017-08-09T14:48:35.684Z,185
2017-08-09T14:49:35.676Z,190
2017-08-09T14:50:35.112Z,175
2017-08-09T14:52:04.942Z,170
2017-08-09T14:52:35.145Z,170
2017-08-09T14:53:35.803Z,170
2017-08-09T14:54:35.541Z,185
2017-08-09T14:55:35.567Z,175
2017-08-09T14:56:35.603Z,190